createdAt,value
2022-11-21T00:01:21.451Z,4.13
2022-11-21T00:03:49.457Z,2.95
2022-11-21T00:06:17.464Z,3.38
2022-11-21T00:08:45.715Z,2.47
2022-11-21T00:11:17.688Z,2.78
2022-11-21T00:13:45.509Z,3.47
2022-11-21T00:16:15.299Z,4.30
2022-11-21T00:18:49.438Z,3.65
2022-11-21T00:21:19.419Z,3.38
2022-11-21T00:23:48.564Z,3.13
2022-11-21T00:26:17.910Z,3.25
2022-11-21T00:28:46.189Z,3.47
2022-11-21T00:31:22.855Z,4.13
2022-11-21T00:33:50.804Z,3.60
2022-11-21T00:36:18.864Z,2.90
2022-11-21T00:38:47.166Z,3.63
2022-11-21T00:41:17.183Z,2.85
2022-11-21T00:43:47.546Z,2.67
2022-11-21T00:46:18.166Z,2.78
2022-11-21T00:48:45.975Z,2.35
2022-11-21T00:51:13.739Z,4.80
2022-11-21T00:53:42.006Z,4.00
2022-11-21T00:56:11.949Z,2.88
2022-11-21T00:58:41.129Z,3.30
2022-11-21T01:01:11.757Z,3.05
2022-11-21T01:03:40.749Z,3.08
2022-11-21T01:06:10.332Z,2.92
2022-11-21T01:08:40.158Z,3.22
2022-11-21T01:11:13.560Z,3.08
2022-11-21T01:13:43.056Z,2.50
2022-11-21T01:16:15.861Z,2.45
2022-11-21T01:18:44.095Z,2.67
2022-11-21T01:21:16.999Z,2.42
2022-11-21T01:23:47.194Z,4.22
2022-11-21T01:26:17.485Z,2.50
2022-11-21T01:28:47.030Z,2.70
2022-11-21T01:31:30.585Z,2.65
2022-11-21T01:34:02.286Z,2.60
2022-11-21T01:36:31.663Z,3.50
2022-11-21T01:39:03.117Z,2.60
2022-11-21T01:41:33.541Z,2.45
2022-11-21T01:44:12.689Z,2.47
2022-11-21T01:46:41.918Z,4.18
2022-11-21T01:49:27.882Z,3.20
2022-11-21T01:52:00.136Z,4.18
2022-11-21T01:54:31.093Z,3.67
2022-11-21T01:57:04.181Z,2.97
2022-11-21T01:59:39.799Z,2.83
2022-11-21T02:02:10.024Z,3.80
2022-11-21T02:04:40.366Z,3.65
2022-11-21T02:07:09.750Z,3.40
2022-11-21T02:09:41.533Z,3.50
2022-11-21T02:12:12.921Z,3.58
2022-11-21T02:14:44.592Z,2.40
2022-11-21T02:17:24.761Z,2.65
2022-11-21T02:19:57.050Z,5.18
2022-11-21T02:22:37.606Z,4.20
2022-11-21T02:25:09.656Z,2.80
2022-11-21T02:27:37.508Z,4.60
2022-11-21T02:30:11.080Z,3.13
2022-11-21T02:32:41.376Z,2.90
2022-11-21T02:35:10.089Z,2.20
2022-11-21T02:37:38.583Z,2.30
2022-11-21T02:40:11.209Z,3.42
2022-11-21T02:42:43.070Z,3.72
2022-11-21T02:45:17.392Z,2.90
2022-11-21T02:50:21.167Z,2.70
2022-11-21T02:52:48.903Z,3.38
2022-11-21T02:55:24.340Z,3.95
2022-11-21T02:57:52.549Z,3.10
2022-11-21T03:00:21.546Z,2.75
2022-11-21T03:02:49.477Z,3.25
2022-11-21T03:05:21.180Z,4.18
2022-11-21T03:07:49.306Z,3.95
2022-11-21T03:10:20.526Z,3.97
2022-11-21T03:12:49.760Z,3.60
2022-11-21T03:15:23.490Z,2.65
2022-11-21T03:17:51.277Z,4.03
2022-11-21T03:20:19.346Z,4.43
2022-11-21T03:22:47.916Z,3.42
2022-11-21T03:25:15.714Z,2.90
2022-11-21T03:27:43.582Z,3.03
2022-11-21T03:30:14.174Z,3.42
2022-11-21T03:32:42.079Z,3.55
2022-11-21T03:35:10.251Z,3.78
2022-11-21T03:37:38.076Z,3.60
2022-11-21T03:40:07.035Z,4.32
2022-11-21T03:42:35.207Z,4.57
2022-11-21T03:45:03.011Z,4.22
2022-11-21T03:47:32.235Z,3.90
2022-11-21T03:50:00.060Z,4.75
2022-11-21T03:52:27.873Z,5.55
2022-11-21T03:54:57.573Z,4.85
2022-11-21T03:57:25.386Z,4.47
2022-11-21T03:59:53.376Z,4.38
2022-11-21T04:02:21.235Z,5.80
2022-11-21T04:04:50.414Z,3.25
2022-11-21T04:07:18.590Z,3.88
2022-11-21T04:09:46.629Z,4.13
2022-11-21T04:12:16.559Z,4.25
2022-11-21T04:14:44.969Z,5.95
2022-11-21T04:17:12.784Z,3.95
2022-11-21T04:19:40.673Z,4.07
2022-11-21T04:22:09.825Z,4.47
2022-11-21T04:24:45.393Z,3.92
2022-11-21T04:27:13.540Z,4.13
2022-11-21T04:29:41.385Z,3.85
2022-11-21T04:32:09.542Z,3.80
2022-11-21T04:34:39.609Z,3.33
2022-11-21T04:37:11.348Z,3.42
2022-11-21T04:39:41.296Z,3.40
2022-11-21T04:42:15.342Z,2.88
2022-11-21T04:44:43.325Z,2.92
2022-11-21T04:47:21.306Z,3.35
2022-11-21T04:49:49.179Z,3.25
2022-11-21T04:52:17.133Z,3.25
2022-11-21T04:54:46.373Z,3.35
2022-11-21T04:57:15.443Z,3.85
2022-11-21T04:59:43.232Z,3.33
2022-11-21T05:02:11.289Z,3.30
2022-11-21T05:04:39.182Z,3.15
2022-11-21T05:07:09.210Z,3.53
2022-11-21T05:09:37.055Z,3.80
2022-11-21T05:12:24.562Z,3.60
2022-11-21T05:14:52.359Z,3.45
2022-11-21T05:17:23.084Z,3.35
2022-11-21T05:19:50.960Z,3.38
2022-11-21T05:22:18.886Z,3.33
2022-11-21T05:24:46.887Z,3.20
2022-11-21T05:27:16.070Z,3.25
2022-11-21T05:29:46.402Z,3.13
2022-11-21T05:32:17.390Z,3.35
2022-11-21T05:34:52.937Z,5.70
2022-11-21T05:37:21.928Z,3.08
2022-11-21T05:39:49.831Z,3.45
2022-11-21T05:42:42.532Z,5.00
2022-11-21T05:45:10.183Z,3.80
2022-11-21T05:47:38.373Z,4.93
2022-11-21T05:50:07.053Z,4.20
2022-11-21T05:52:35.257Z,6.22
2022-11-21T05:55:03.153Z,6.13
2022-11-21T05:57:34.327Z,4.35
2022-11-21T06:00:02.131Z,4.05
2022-11-21T06:02:52.006Z,4.22
2022-11-21T06:05:19.991Z,4.60
2022-11-21T06:07:47.901Z,5.95
2022-11-21T06:10:16.129Z,4.43
2022-11-21T06:12:48.329Z,3.45
2022-11-21T06:15:16.979Z,3.63
2022-11-21T06:17:50.665Z,3.63
2022-11-21T06:20:18.542Z,3.38
2022-11-21T06:22:46.347Z,4.50
2022-11-21T06:25:14.481Z,3.60
2022-11-21T06:27:42.219Z,3.30
2022-11-21T06:30:12.210Z,3.53
2022-11-21T06:32:40.127Z,5.18
2022-11-21T06:35:11.907Z,3.90
2022-11-21T06:37:54.851Z,4.70
2022-11-21T06:40:22.680Z,3.20
2022-11-21T06:42:50.470Z,3.17
2022-11-21T06:45:21.891Z,4.05
2022-11-21T06:47:49.790Z,3.75
2022-11-21T06:50:17.981Z,2.72
2022-11-21T06:52:45.789Z,3.03
2022-11-21T06:55:14.275Z,3.08
2022-11-21T06:57:42.244Z,3.45
2022-11-21T07:00:11.112Z,2.63
2022-11-21T07:02:40.203Z,3.05
2022-11-21T07:05:08.306Z,2.78
2022-11-21T07:07:36.160Z,3.22
2022-11-21T07:10:04.627Z,2.78
2022-11-21T07:12:53.030Z,3.03
2022-11-21T07:15:23.065Z,3.25
2022-11-21T07:18:00.609Z,4.75
2022-11-21T07:20:31.571Z,2.85
2022-11-21T07:22:59.430Z,3.53
2022-11-21T07:25:29.413Z,3.58
2022-11-21T07:28:00.738Z,2.63
2022-11-21T07:30:29.674Z,3.50
2022-11-21T07:33:03.436Z,4.35
2022-11-21T07:35:32.739Z,3.25
2022-11-21T07:38:01.115Z,2.78
2022-11-21T07:40:33.826Z,2.90
2022-11-21T07:43:06.727Z,2.92
2022-11-21T07:45:47.624Z,3.17
2022-11-21T07:48:19.055Z,2.83
2022-11-21T07:50:49.554Z,2.97
2022-11-21T07:53:17.499Z,2.50
2022-11-21T07:55:45.236Z,2.90
2022-11-21T07:58:17.894Z,3.30
2022-11-21T08:00:45.846Z,3.47
2022-11-21T08:03:15.953Z,3.60
2022-11-21T08:05:45.319Z,3.50
2022-11-21T08:08:14.573Z,3.08
2022-11-21T08:10:47.051Z,3.60
2022-11-21T08:13:15.769Z,3.47
2022-11-21T08:15:56.071Z,3.70
2022-11-21T08:18:25.263Z,4.53
2022-11-21T08:20:56.018Z,4.20
2022-11-21T08:23:23.834Z,5.60
2022-11-21T08:25:54.941Z,9.18
2022-11-21T08:28:23.146Z,4.65
2022-11-21T08:30:57.311Z,5.82
2022-11-21T08:33:29.098Z,4.65
2022-11-21T08:35:57.228Z,4.82
2022-11-21T08:38:25.140Z,7.43
2022-11-21T08:41:17.382Z,7.57
2022-11-21T08:43:46.026Z,4.55
2022-11-21T08:46:13.819Z,6.38
2022-11-21T08:48:42.997Z,4.65
2022-11-21T08:51:14.075Z,5.97
2022-11-21T08:53:41.982Z,5.90
2022-11-21T08:56:09.902Z,4.47
2022-11-21T08:58:37.771Z,5.63
2022-11-21T09:01:05.617Z,4.75
2022-11-21T09:03:33.897Z,4.47
2022-11-21T09:06:03.335Z,4.45
2022-11-21T09:08:32.080Z,4.20
2022-11-21T09:11:00.212Z,6.72
2022-11-21T09:13:31.212Z,4.82
2022-11-21T09:16:20.463Z,6.00
2022-11-21T09:18:49.211Z,5.20
2022-11-21T09:21:19.761Z,5.05
2022-11-21T09:23:47.813Z,5.22
2022-11-21T09:26:15.674Z,5.53
2022-11-21T09:28:43.493Z,4.25
2022-11-21T09:31:11.435Z,4.03
2022-11-21T09:33:39.331Z,3.78
2022-11-21T09:36:07.241Z,3.88
2022-11-21T09:38:36.431Z,4.35
2022-11-21T09:41:42.592Z,4.40
2022-11-21T09:44:18.537Z,3.53
2022-11-21T09:47:01.448Z,3.70
2022-11-21T09:49:31.042Z,4.47
2022-11-21T09:52:00.383Z,3.17
2022-11-21T09:54:35.803Z,3.22
2022-11-21T09:57:03.725Z,2.70
2022-11-21T09:59:36.190Z,3.17
2022-11-21T10:02:15.996Z,4.32
2022-11-21T10:04:44.309Z,4.80
2022-11-21T10:07:20.426Z,3.53
2022-11-21T10:10:04.661Z,3.63
2022-11-21T10:12:43.688Z,3.25
2022-11-21T10:15:39.855Z,3.33
2022-11-21T10:18:31.777Z,4.25
2022-11-21T10:21:10.122Z,3.42
2022-11-21T10:23:54.660Z,3.30
2022-11-21T10:26:37.204Z,3.70
2022-11-21T10:29:12.125Z,4.20
2022-11-21T10:31:42.420Z,5.95
2022-11-21T10:34:13.495Z,3.75
2022-11-21T10:36:44.565Z,3.72
2022-11-21T10:39:19.564Z,4.68
2022-11-21T10:41:54.430Z,5.22
2022-11-21T10:44:45.490Z,4.13
2022-11-21T10:47:27.276Z,5.05
2022-11-21T10:50:16.568Z,5.70
2022-11-21T10:52:49.229Z,6.18
2022-11-21T10:55:19.423Z,5.38
2022-11-21T10:57:50.773Z,3.95
2022-11-21T11:00:24.172Z,4.35
2022-11-21T11:03:16.895Z,3.30
2022-11-21T11:05:56.508Z,4.15
2022-11-21T11:08:31.849Z,3.53
2022-11-21T11:11:08.084Z,4.25
2022-11-21T11:13:56.111Z,3.97
2022-11-21T11:16:29.425Z,3.65
2022-11-21T11:19:01.140Z,4.93
2022-11-21T11:21:31.241Z,3.92
2022-11-21T11:24:30.211Z,4.50
2022-11-21T11:27:00.786Z,4.78
2022-11-21T11:29:32.341Z,4.45
2022-11-21T11:32:19.418Z,3.88
2022-11-21T11:34:59.042Z,5.00
2022-11-21T11:37:40.451Z,5.50
2022-11-21T11:40:23.902Z,4.95
2022-11-21T11:43:53.810Z,4.57
2022-11-21T11:46:56.173Z,4.60
2022-11-21T11:49:52.624Z,3.63
2022-11-21T11:52:26.374Z,3.95
2022-11-21T11:54:59.420Z,4.22
2022-11-21T11:57:32.565Z,5.70
2022-11-21T12:00:14.987Z,5.97
2022-11-21T12:02:55.825Z,5.65
2022-11-21T12:05:27.270Z,5.47
2022-11-21T12:11:24.743Z,4.63
2022-11-21T12:13:55.792Z,4.50
2022-11-21T12:16:26.746Z,4.95
2022-11-21T12:19:01.173Z,5.38
2022-11-21T12:23:58.413Z,4.63
2022-11-21T12:26:39.158Z,4.45
2022-11-21T12:29:20.250Z,3.20
2022-11-21T12:32:05.730Z,3.83
2022-11-21T12:34:56.803Z,4.72
2022-11-21T12:37:35.503Z,3.63
2022-11-21T12:40:17.442Z,3.63
2022-11-21T12:43:02.908Z,3.00
2022-11-21T12:45:33.389Z,2.60
2022-11-21T12:48:33.480Z,2.42
2022-11-21T12:51:50.104Z,3.72
2022-11-21T12:54:34.271Z,2.92
2022-11-21T12:57:11.473Z,5.20
2022-11-21T12:59:49.666Z,4.00
2022-11-21T13:02:31.199Z,3.40
2022-11-21T13:05:01.244Z,3.22
2022-11-21T13:07:32.556Z,3.55
2022-11-21T13:10:05.131Z,3.05
2022-11-21T13:12:42.060Z,4.05
2022-11-21T13:15:19.844Z,3.13
2022-11-21T13:17:54.186Z,4.40
2022-11-21T13:22:59.508Z,3.30
2022-11-21T13:25:41.616Z,4.35
2022-11-21T13:28:32.002Z,5.00
2022-11-21T13:31:01.439Z,4.70
2022-11-21T13:33:50.039Z,5.00
2022-11-21T13:36:43.393Z,3.60
2022-11-21T13:39:34.793Z,3.03
2022-11-21T13:42:30.877Z,2.30
2022-11-21T13:44:59.424Z,2.70
2022-11-21T13:48:19.757Z,2.58
2022-11-21T13:51:20.776Z,2.45
2022-11-21T13:54:21.908Z,2.92
2022-11-21T13:57:05.828Z,4.28
2022-11-21T13:59:50.766Z,3.63
2022-11-21T14:02:52.008Z,4.82
2022-11-21T14:05:44.064Z,4.25
2022-11-21T14:08:29.816Z,3.55
2022-11-21T14:10:58.637Z,3.03
2022-11-21T14:13:33.763Z,3.15
2022-11-21T14:16:28.316Z,2.75
2022-11-21T14:19:06.595Z,2.85
2022-11-21T14:21:35.259Z,2.50
2022-11-21T14:24:06.065Z,2.28
2022-11-21T14:26:47.202Z,2.28
2022-11-21T14:29:22.608Z,2.67
2022-11-21T14:31:51.842Z,2.63
2022-11-21T14:34:27.663Z,2.53
2022-11-21T14:36:58.827Z,3.13
2022-11-21T14:39:37.191Z,3.03
2022-11-21T14:42:35.945Z,2.58
2022-11-21T14:45:16.297Z,2.10
2022-11-21T14:47:55.017Z,2.70
2022-11-21T14:50:34.553Z,3.58
2022-11-21T14:53:03.071Z,3.25
2022-11-21T14:55:34.706Z,3.15
2022-11-21T14:58:04.887Z,3.30
2022-11-21T15:00:58.700Z,4.00
2022-11-21T15:03:24.384Z,3.30
2022-11-21T15:06:06.895Z,3.17
2022-11-21T15:11:31.073Z,4.20
2022-11-21T15:14:15.638Z,2.90
2022-11-21T15:16:47.603Z,3.35
2022-11-21T15:19:25.838Z,4.05
2022-11-21T15:22:01.909Z,3.35
2022-11-21T15:24:40.366Z,3.67
2022-11-21T15:27:31.434Z,2.92
2022-11-21T15:30:04.077Z,2.70
2022-11-21T15:32:33.558Z,3.10
2022-11-21T15:35:21.601Z,2.88
2022-11-21T15:37:52.657Z,3.95
2022-11-21T15:40:21.386Z,3.30
2022-11-21T15:42:52.139Z,2.95
2022-11-21T15:45:26.761Z,3.53
2022-11-21T15:47:56.794Z,2.78
2022-11-21T15:50:26.173Z,4.15
2022-11-21T15:52:54.739Z,4.13
2022-11-21T15:55:25.940Z,5.00
2022-11-21T15:57:53.814Z,3.35
2022-11-21T16:00:21.787Z,3.88
2022-11-21T16:02:49.815Z,4.50
2022-11-21T16:05:19.112Z,3.55
2022-11-21T16:07:48.601Z,4.50
2022-11-21T16:10:24.305Z,4.05
2022-11-21T16:12:58.415Z,5.45
2022-11-21T16:15:26.513Z,3.75
2022-11-21T16:17:55.463Z,3.53
2022-11-21T16:20:24.669Z,3.20
2022-11-21T16:22:53.200Z,3.88
2022-11-21T16:25:21.620Z,3.47
2022-11-21T16:27:49.822Z,4.03
2022-11-21T16:30:18.041Z,3.00
2022-11-21T16:32:48.424Z,4.57
2022-11-21T16:35:19.118Z,3.13
2022-11-21T16:37:48.501Z,3.60
2022-11-21T16:40:19.469Z,4.57
2022-11-21T16:42:47.297Z,4.05
2022-11-21T16:45:15.672Z,5.03
2022-11-21T16:47:48.610Z,4.28
2022-11-21T16:50:18.800Z,5.50
2022-11-21T16:52:49.557Z,4.22
2022-11-21T16:55:18.029Z,4.40
2022-11-21T16:57:45.968Z,4.20
2022-11-21T17:00:14.501Z,3.60
2022-11-21T17:02:45.101Z,4.07
2022-11-21T17:05:14.902Z,3.63
2022-11-21T17:07:43.474Z,4.13
2022-11-21T17:10:16.732Z,4.13
2022-11-21T17:12:45.230Z,3.33
2022-11-21T17:15:15.666Z,3.05
2022-11-21T17:17:47.010Z,4.65
2022-11-21T17:20:14.854Z,4.97
2022-11-21T17:22:42.694Z,4.70
2022-11-21T17:25:11.101Z,3.88
2022-11-21T17:27:40.213Z,3.63
2022-11-21T17:30:10.745Z,4.60
2022-11-21T17:32:39.377Z,3.22
2022-11-21T17:35:08.527Z,4.10
2022-11-21T17:37:36.420Z,3.58
2022-11-21T17:40:06.620Z,3.75
2022-11-21T17:42:34.520Z,4.35
2022-11-21T17:45:03.679Z,3.95
2022-11-21T17:47:33.819Z,3.67
2022-11-21T17:50:06.071Z,4.90
2022-11-21T17:52:34.314Z,3.83
2022-11-21T17:55:02.429Z,3.70
2022-11-21T17:57:30.322Z,3.85
2022-11-21T18:00:00.358Z,3.72
2022-11-21T18:02:29.751Z,4.38
2022-11-21T18:05:00.569Z,4.93
2022-11-21T18:07:29.893Z,3.72
2022-11-21T18:10:14.335Z,3.42
2022-11-21T18:12:45.867Z,3.65
2022-11-21T18:15:13.709Z,5.10
2022-11-21T18:17:48.015Z,4.22
2022-11-21T18:20:16.036Z,4.88
2022-11-21T18:22:45.614Z,4.68
2022-11-21T18:25:13.517Z,5.10
2022-11-21T18:27:41.474Z,4.32
2022-11-21T18:30:10.392Z,3.85
2022-11-21T18:32:38.654Z,4.25
2022-11-21T18:35:11.374Z,5.07
2022-11-21T18:37:40.593Z,6.25
2022-11-21T18:40:10.852Z,4.95
2022-11-21T18:42:38.732Z,5.50
2022-11-21T18:45:08.255Z,5.95
2022-11-21T18:47:36.154Z,4.18
2022-11-21T18:50:04.107Z,6.10
2022-11-21T18:52:34.472Z,4.63
2022-11-21T18:55:03.572Z,7.50
2022-11-21T18:57:32.388Z,6.03
2022-11-21T19:00:05.881Z,5.45
2022-11-21T19:02:33.789Z,5.15
2022-11-21T19:05:01.823Z,6.07
2022-11-21T19:07:29.825Z,4.85
2022-11-21T19:10:20.783Z,4.93
2022-11-21T19:12:47.011Z,4.53
2022-11-21T19:15:15.033Z,4.95
2022-11-21T19:17:42.927Z,5.80
2022-11-21T19:20:12.005Z,4.38
2022-11-21T19:22:39.996Z,5.53
2022-11-21T19:25:10.110Z,4.97
2022-11-21T19:27:38.105Z,5.72
2022-11-21T19:30:13.414Z,5.70
2022-11-21T19:32:41.328Z,6.78
2022-11-21T19:35:10.127Z,5.55
2022-11-21T19:37:40.696Z,5.22
2022-11-21T19:40:11.660Z,5.80
2022-11-21T19:42:39.641Z,4.93
2022-11-21T19:45:08.677Z,4.90
2022-11-21T19:47:39.741Z,4.85
2022-11-21T19:50:08.660Z,4.55
2022-11-21T19:52:36.608Z,4.22
2022-11-21T19:55:05.004Z,4.93
2022-11-21T19:57:37.391Z,5.30
2022-11-21T20:00:07.003Z,5.05
2022-11-21T20:02:37.707Z,4.63
2022-11-21T20:05:06.204Z,4.72
2022-11-21T20:07:34.471Z,4.65
2022-11-21T20:10:06.053Z,4.97
2022-11-21T20:12:35.542Z,5.03
2022-11-21T20:15:03.502Z,4.35
2022-11-21T20:17:31.368Z,4.50
2022-11-21T20:19:59.980Z,4.05
2022-11-21T20:22:30.091Z,5.03
2022-11-21T20:25:01.112Z,3.88
2022-11-21T20:27:28.970Z,4.70
2022-11-21T20:30:06.821Z,4.47
2022-11-21T20:32:35.148Z,4.65
2022-11-21T20:35:03.076Z,5.10
2022-11-21T20:37:33.610Z,4.30
2022-11-21T20:40:09.431Z,3.90
2022-11-21T20:42:37.592Z,4.55
2022-11-21T20:46:07.200Z,4.22
2022-11-21T20:47:58.511Z,4.90
2022-11-21T20:51:18.071Z,5.03
2022-11-21T20:53:50.859Z,4.28
2022-11-21T20:56:03.812Z,5.35
2022-11-21T20:58:32.254Z,3.67
2022-11-21T21:01:04.925Z,5.35
2022-11-21T21:03:34.907Z,3.47
2022-11-21T21:06:07.178Z,4.25
2022-11-21T21:08:36.075Z,5.43
2022-11-21T21:11:30.693Z,4.90
2022-11-21T21:14:00.684Z,4.32
2022-11-21T21:16:30.384Z,3.85
2022-11-21T21:18:58.215Z,3.85
2022-11-21T21:21:28.996Z,3.88
2022-11-21T21:24:17.606Z,5.00
2022-11-21T21:26:48.070Z,4.22
2022-11-21T21:29:19.000Z,4.60
2022-11-21T21:31:52.811Z,4.47
2022-11-21T21:34:21.986Z,6.25
2022-11-21T21:36:53.315Z,6.28
2022-11-21T21:39:21.255Z,3.95
2022-11-21T21:41:49.342Z,5.28
2022-11-21T21:44:19.974Z,4.93
2022-11-21T21:46:49.297Z,5.55
2022-11-21T21:49:17.250Z,4.32
2022-11-21T21:51:45.149Z,6.32
2022-11-21T21:54:23.523Z,6.05
2022-11-21T21:56:52.471Z,4.90
2022-11-21T21:59:20.359Z,4.43
2022-11-21T22:01:49.652Z,4.65
2022-11-21T22:04:27.005Z,4.50
2022-11-21T22:06:55.063Z,5.38
2022-11-21T22:09:24.336Z,4.28
2022-11-21T22:11:54.186Z,4.65
2022-11-21T22:14:22.193Z,4.93
2022-11-21T22:16:51.951Z,4.35
2022-11-21T22:19:21.281Z,4.97
2022-11-21T22:21:49.103Z,5.57
2022-11-21T22:24:25.341Z,4.53
2022-11-21T22:26:54.586Z,4.22
2022-11-21T22:29:22.627Z,4.78
2022-11-21T22:31:59.591Z,3.67
2022-11-21T22:34:40.034Z,3.75
2022-11-21T22:37:08.387Z,5.60
2022-11-21T22:39:36.220Z,3.75
2022-11-21T22:42:06.733Z,4.20
2022-11-21T22:44:34.810Z,5.38
2022-11-21T22:47:06.366Z,7.38
2022-11-21T22:49:34.281Z,5.60
2022-11-21T22:52:09.453Z,4.00
2022-11-21T22:54:37.403Z,5.68
2022-11-21T22:57:05.264Z,5.20
2022-11-21T22:59:33.646Z,5.78
2022-11-21T23:02:08.181Z,5.35
2022-11-21T23:04:36.120Z,5.18
2022-11-21T23:07:04.168Z,5.72
2022-11-21T23:09:33.301Z,4.03
2022-11-21T23:12:02.286Z,4.55
2022-11-21T23:14:30.583Z,4.55
2022-11-21T23:16:58.536Z,5.30
2022-11-21T23:19:28.148Z,5.05
2022-11-21T23:21:56.105Z,4.40
2022-11-21T23:24:24.145Z,5.30
2022-11-21T23:26:55.437Z,4.50
2022-11-21T23:29:23.299Z,4.93
2022-11-21T23:31:52.470Z,4.53
2022-11-21T23:34:20.544Z,4.28
2022-11-21T23:36:49.666Z,5.53
2022-11-21T23:39:17.733Z,6.78
2022-11-21T23:41:45.708Z,7.03
2022-11-21T23:44:17.353Z,5.88
2022-11-21T23:46:53.460Z,7.78
2022-11-21T23:49:21.260Z,8.13
2022-11-21T23:51:56.431Z,7.80
2022-11-21T23:54:24.299Z,7.43
2022-11-21T23:56:55.230Z,6.15
2022-11-21T23:59:23.170Z,8.32
